Meteorología – Condiciones actuales

Viento: 5kts / 312° Pista Recomendada: 24
Componente de viento cruzado: 4.6kts
Temperatura: 9°C / Punto de Rocío: 4°C
QNH LELC: 1021 / Presión atmosf. LELG: 1021.67mbar
Condición CTR LELC: VFR
Altitud de Densidad: -566'AMSL / Isocero: 4210'AMSL
Orto: 08:04LT / Ocaso: 18:31LT
METAR LELC: LELC 080100Z AUTO 01007KT 9999 SCT035 SCT041 12/06 Q1021
Fuente: NOAA
Datos completos de la estación meteorológica en Weather Underground
UTC time: